createdAt,value
2022-12-11T00:02:49.999Z,4.70
2022-12-11T00:07:51.913Z,4.80
2022-12-11T00:12:53.732Z,4.80
2022-12-11T00:17:55.586Z,4.80
2022-12-11T00:22:57.377Z,4.90
2022-12-11T00:27:59.275Z,5.00
2022-12-11T00:33:01.109Z,5.00
2022-12-11T00:38:03.003Z,5.00
2022-12-11T00:43:05.165Z,4.90
2022-12-11T00:48:07.739Z,4.90
2022-12-11T00:53:09.765Z,4.90
2022-12-11T00:58:12.854Z,4.80
2022-12-11T01:03:15.859Z,4.60
2022-12-11T01:08:17.791Z,4.50
2022-12-11T01:13:19.767Z,4.50
2022-12-11T01:18:21.627Z,4.40
2022-12-11T01:23:23.460Z,4.50
2022-12-11T01:28:25.277Z,4.50
2022-12-11T01:33:27.541Z,4.50
2022-12-11T01:38:29.376Z,4.50
2022-12-11T01:43:31.645Z,4.50
2022-12-11T01:48:36.798Z,4.50
2022-12-11T01:53:48.716Z,4.40
2022-12-11T01:58:55.039Z,4.30
2022-12-11T02:03:57.347Z,4.30
2022-12-11T02:08:59.706Z,4.20
2022-12-11T02:14:19.830Z,4.10
2022-12-11T02:19:44.307Z,4.10
2022-12-11T02:24:48.806Z,4.00
2022-12-11T02:29:56.183Z,4.00
2022-12-11T02:35:05.627Z,4.00
2022-12-11T02:40:11.180Z,4.10
2022-12-11T02:45:14.731Z,4.10
2022-12-11T02:50:21.125Z,4.00
2022-12-11T02:55:24.675Z,4.00
2022-12-11T03:00:26.466Z,3.90
2022-12-11T03:05:29.202Z,3.80
2022-12-11T03:10:31.104Z,3.80
2022-12-11T03:15:55.440Z,3.90
2022-12-11T03:21:02.960Z,3.80
2022-12-11T03:26:14.641Z,3.70
2022-12-11T03:31:29.415Z,3.60
2022-12-11T03:36:39.329Z,3.60
2022-12-11T03:41:43.982Z,3.70
2022-12-11T03:46:47.630Z,3.90
2022-12-11T03:51:51.569Z,3.90
2022-12-11T03:56:57.058Z,4.00
2022-12-11T04:01:59.215Z,4.00
2022-12-11T04:07:01.056Z,4.00
2022-12-11T04:12:03.076Z,4.00
2022-12-11T04:17:05.204Z,4.00
2022-12-11T04:22:26.107Z,3.90
2022-12-11T04:27:46.377Z,3.60
2022-12-11T04:32:48.347Z,3.40
2022-12-11T04:37:50.458Z,3.20
2022-12-11T04:42:52.361Z,3.10
2022-12-11T04:47:54.248Z,3.10
2022-12-11T04:52:58.865Z,3.00
2022-12-11T04:58:00.704Z,2.90
2022-12-11T05:03:02.809Z,2.90
2022-12-11T05:08:05.494Z,2.90
2022-12-11T05:13:07.453Z,3.00
2022-12-11T05:18:09.400Z,3.00
2022-12-11T05:23:11.572Z,3.10
2022-12-11T05:28:13.460Z,3.10
2022-12-11T05:33:15.295Z,3.10
2022-12-11T05:38:17.688Z,3.10
2022-12-11T05:43:19.578Z,3.10
2022-12-11T05:48:21.769Z,3.00
2022-12-11T05:53:24.241Z,2.90
2022-12-11T05:58:26.263Z,2.90
2022-12-11T06:03:28.531Z,2.90
2022-12-11T06:08:30.965Z,2.80
2022-12-11T06:13:33.669Z,2.70
2022-12-11T06:18:36.931Z,2.60
2022-12-11T06:23:38.811Z,2.50
2022-12-11T06:28:40.732Z,2.60
2022-12-11T06:33:43.366Z,2.50
2022-12-11T06:38:45.667Z,2.60
2022-12-11T06:43:47.629Z,2.60
2022-12-11T06:48:49.998Z,2.70
2022-12-11T06:53:57.199Z,2.70
2022-12-11T06:59:02.891Z,2.70
2022-12-11T07:04:09.525Z,2.60
2022-12-11T07:09:11.451Z,2.60
2022-12-11T07:14:13.498Z,2.50
2022-12-11T07:19:15.407Z,2.50
2022-12-11T07:24:17.757Z,2.50
2022-12-11T07:29:19.886Z,2.50
2022-12-11T07:34:21.893Z,2.40
2022-12-11T07:39:24.043Z,2.50
2022-12-11T07:44:26.148Z,2.40
2022-12-11T07:49:28.259Z,2.30
2022-12-11T07:54:30.227Z,2.30
2022-12-11T07:59:32.613Z,2.20
2022-12-11T08:04:34.632Z,2.20
2022-12-11T08:09:36.591Z,2.20
2022-12-11T08:14:38.477Z,2.30
2022-12-11T08:19:40.458Z,2.30
2022-12-11T08:24:42.534Z,2.80
2022-12-11T08:29:45.756Z,3.40
2022-12-11T08:34:48.037Z,4.20
2022-12-11T08:39:53.209Z,5.10
2022-12-11T08:45:02.680Z,6.10
2022-12-11T08:50:12.744Z,7.10
2022-12-11T09:07:05.345Z,9.50
2022-12-11T09:12:09.793Z,10.00
2022-12-11T09:33:47.979Z,10.90
2022-12-11T18:55:30.395Z,2.90
2022-12-11T19:00:32.409Z,2.90
2022-12-11T19:05:36.426Z,2.90
2022-12-11T19:10:44.617Z,2.80
2022-12-11T19:15:47.231Z,2.70
2022-12-11T19:20:52.345Z,2.70
2022-12-11T19:26:00.045Z,2.60
2022-12-11T19:31:05.121Z,2.60
2022-12-11T19:36:11.055Z,2.40
2022-12-11T19:41:29.642Z,2.40
2022-12-11T19:46:34.451Z,2.40
2022-12-11T19:51:39.192Z,2.40
2022-12-11T19:56:41.363Z,2.10
2022-12-11T20:01:49.569Z,2.00
2022-12-11T20:06:53.868Z,2.10
2022-12-11T20:11:56.412Z,2.00
2022-12-11T20:17:15.516Z,2.10
2022-12-11T20:22:17.590Z,2.10
2022-12-11T20:27:19.495Z,2.10
2022-12-11T20:32:21.557Z,1.90
2022-12-11T20:37:24.069Z,1.80
2022-12-11T20:42:28.199Z,1.90
2022-12-11T20:47:30.356Z,1.90
2022-12-11T20:52:32.366Z,1.90
2022-12-11T20:57:34.357Z,1.90
2022-12-11T21:02:36.453Z,1.90
2022-12-11T21:07:38.581Z,1.90
2022-12-11T21:12:41.071Z,2.00
2022-12-11T21:17:43.099Z,2.00
2022-12-11T21:22:45.121Z,1.90
2022-12-11T21:27:47.023Z,1.90
2022-12-11T21:32:49.064Z,1.90
2022-12-11T21:37:51.033Z,2.20
2022-12-11T21:42:53.119Z,2.20
2022-12-11T21:47:55.037Z,2.10
2022-12-11T21:52:57.087Z,2.00
2022-12-11T21:57:58.981Z,1.90
2022-12-11T22:03:00.858Z,1.90
2022-12-11T22:08:03.291Z,1.90
2022-12-11T22:13:05.499Z,1.70
2022-12-11T22:18:07.454Z,1.80
2022-12-11T22:23:09.368Z,1.70
2022-12-11T22:28:11.352Z,1.80
2022-12-11T22:33:13.643Z,1.70
2022-12-11T22:38:15.587Z,1.70
2022-12-11T22:43:17.515Z,1.70
2022-12-11T22:48:19.587Z,1.60
2022-12-11T22:53:21.688Z,1.70
2022-12-11T22:58:23.902Z,1.80
2022-12-11T23:03:25.886Z,1.70
2022-12-11T23:08:28.034Z,1.70
2022-12-11T23:13:30.502Z,1.70
2022-12-11T23:18:32.866Z,1.70
2022-12-11T23:23:34.922Z,1.60
2022-12-11T23:28:37.333Z,1.60
2022-12-11T23:33:39.391Z,1.70
2022-12-11T23:38:41.328Z,1.60
2022-12-11T23:43:43.223Z,1.60
2022-12-11T23:48:45.530Z,1.50
2022-12-11T23:53:47.758Z,1.50
2022-12-11T23:58:50.328Z,1.60
